Time;durP1;ratioP1;P1;durP2;ratioP2;P2;SDS_P1;SDS_P2;PMS_P1;PMS_P2;Temp;Humidity;BMP_temperature;BMP_pressure;BME280_temperature;BME280_humidity;BME280_pressure;Samples;Min_cycle;Max_cycle;Signal;HPM_P1;HPM_P2
2022/04/09 00:00:25;;;;;;;15.68;2.97;;;3.50;99.90;;;;;;4823743;29;20061;-67
2022/04/09 00:02:51;;;;;;;9.40;2.83;;;3.60;99.90;;;;;;4800134;29;20058;-69
2022/04/09 00:05:17;;;;;;;8.80;2.80;;;3.50;99.90;;;;;;4804727;29;20061;-68
2022/04/09 00:07:43;;;;;;;12.38;2.83;;;3.50;99.90;;;;;;4805533;29;20089;-66
2022/04/09 00:10:11;;;;;;;11.98;3.10;;;3.70;99.90;;;;;;4823281;29;20093;-67
2022/04/09 00:12:37;;;;;;;8.77;2.58;;;3.60;99.90;;;;;;4821988;29;20057;-67
2022/04/09 00:15:04;;;;;;;11.80;2.85;;;3.70;99.90;;;;;;4823061;29;20050;-67
2022/04/09 00:17:38;;;;;;;8.90;2.63;;;3.90;99.90;;;;;;4822787;29;20066;-67
2022/04/09 00:20:05;;;;;;;12.82;3.35;;;3.90;99.90;;;;;;4807615;29;20137;-66
2022/04/09 00:22:31;;;;;;;5.05;1.77;;;3.90;99.90;;;;;;4822100;29;20109;-67
2022/04/09 00:24:57;;;;;;;4.72;1.75;;;3.80;99.90;;;;;;4823782;29;20512;-67
2022/04/09 00:27:22;;;;;;;7.10;1.70;;;3.80;99.90;;;;;;4820067;29;20092;-67
2022/04/09 00:29:48;;;;;;;6.22;2.42;;;3.70;99.90;;;;;;4803231;29;20086;-68
2022/04/09 00:32:13;;;;;;;6.10;2.08;;;3.60;99.90;;;;;;4822436;29;20129;-68
2022/04/09 00:34:39;;;;;;;7.18;2.33;;;3.60;99.90;;;;;;4821573;29;20085;-67
2022/04/09 00:37:05;;;;;;;11.13;2.63;;;3.50;99.90;;;;;;4822866;29;20058;-67
2022/04/09 00:39:31;;;;;;;9.52;2.53;;;3.50;99.90;;;;;;4806378;29;20065;-69
2022/04/09 00:41:56;;;;;;;7.13;2.22;;;3.40;99.90;;;;;;4805561;29;20054;-67
2022/04/09 00:44:22;;;;;;;9.77;2.63;;;3.50;99.90;;;;;;4821881;29;20054;-68
2022/04/09 00:46:48;;;;;;;9.75;2.47;;;3.30;99.90;;;;;;4806247;29;20094;-67
2022/04/09 00:49:15;;;;;;;7.38;2.22;;;3.50;99.90;;;;;;4822771;29;20063;-68
2022/04/09 00:51:42;;;;;;;9.20;2.10;;;3.50;99.90;;;;;;4821923;29;20066;-68
2022/04/09 00:54:12;;;;;;;5.57;1.98;;;3.40;99.90;;;;;;4822319;29;20073;-68
2022/04/09 00:56:40;;;;;;;10.10;2.70;;;3.70;99.90;;;;;;4822036;29;20061;-67
2022/04/09 00:59:09;;;;;;;9.68;2.22;;;3.70;99.90;;;;;;4805984;29;20054;-68
2022/04/09 01:01:36;;;;;;;6.25;1.80;;;3.70;99.90;;;;;;4805655;29;20133;-67
2022/04/09 01:04:07;;;;;;;6.82;2.22;;;3.70;99.90;;;;;;4821712;29;20074;-67
2022/04/09 01:06:33;;;;;;;8.23;2.38;;;3.80;99.90;;;;;;4819883;29;20061;-68
2022/04/09 01:08:59;;;;;;;9.00;2.05;;;3.80;99.90;;;;;;4812254;29;20432;-67
2022/04/09 01:11:25;;;;;;;9.70;2.33;;;3.90;99.90;;;;;;4793011;29;20059;-66
2022/04/09 01:13:51;;;;;;;6.97;2.10;;;4.10;99.90;;;;;;4809042;29;20054;-66
2022/04/09 01:16:17;;;;;;;10.98;2.90;;;3.80;99.90;;;;;;4813408;29;20051;-67
2022/04/09 01:18:43;;;;;;;9.00;2.33;;;3.80;99.90;;;;;;4824649;29;20050;-67
2022/04/09 01:21:09;;;;;;;8.93;2.33;;;3.90;99.90;;;;;;4809714;29;20507;-68
2022/04/09 01:23:34;;;;;;;5.70;2.10;;;4.00;99.90;;;;;;4826360;29;20070;-66
2022/04/09 01:26:02;;;;;;;5.38;2.17;;;3.70;99.90;;;;;;4823082;29;20057;-66
2022/04/09 01:28:27;;;;;;;7.10;1.90;;;3.80;99.90;;;;;;4821789;29;20411;-66
2022/04/09 01:30:54;;;;;;;8.88;2.10;;;3.80;99.90;;;;;;4825099;29;20050;-66
2022/04/09 01:33:21;;;;;;;8.02;2.80;;;3.70;99.90;;;;;;4807543;29;20055;-67
2022/04/09 01:35:47;;;;;;;9.90;2.97;;;3.80;99.90;;;;;;4826287;29;20396;-67
2022/04/09 01:38:13;;;;;;;8.35;2.50;;;3.80;99.90;;;;;;4807236;29;20133;-67
2022/04/09 01:40:40;;;;;;;6.20;2.50;;;;;;;;;;4792081;29;20075;-66
2022/04/09 01:43:06;;;;;;;8.65;2.17;;;;;;;;;;4807512;29;20058;-66
2022/04/09 01:45:32;;;;;;;11.15;2.63;;;;;;;;;;4824685;29;20066;-66
2022/04/09 01:47:58;;;;;;;8.70;2.40;;;4.10;99.90;;;;;;4809397;29;20067;-66
2022/04/09 01:50:26;;;;;;;8.23;2.70;;;4.10;99.90;;;;;;4823028;29;20073;-66
2022/04/09 01:52:52;;;;;;;9.27;2.65;;;3.90;99.90;;;;;;4809747;29;20103;-67
2022/04/09 01:55:18;;;;;;;9.05;2.75;;;3.90;99.90;;;;;;4824441;29;20636;-66
2022/04/09 01:57:44;;;;;;;9.75;2.67;;;3.90;99.90;;;;;;4816574;29;20051;-66
2022/04/09 02:00:12;;;;;;;12.45;2.28;;;3.80;99.90;;;;;;4819023;29;20437;-67
2022/04/09 02:02:38;;;;;;;11.57;2.60;;;3.90;99.90;;;;;;4807724;29;20061;-66
2022/04/09 02:05:04;;;;;;;6.65;2.28;;;3.80;99.90;;;;;;4823210;29;20046;-67
2022/04/09 02:07:29;;;;;;;8.75;3.00;;;3.70;99.90;;;;;;4808312;29;20062;-66
2022/04/09 02:09:55;;;;;;;10.63;2.63;;;4.00;99.90;;;;;;4823489;29;20051;-66
2022/04/09 02:12:21;;;;;;;10.70;3.03;;;3.90;99.90;;;;;;4823125;29;20564;-66
2022/04/09 02:14:47;;;;;;;8.25;2.28;;;3.60;99.90;;;;;;4825366;29;20053;-68
2022/04/09 02:17:13;;;;;;;7.95;2.35;;;3.60;99.90;;;;;;4823820;29;20098;-65
2022/04/09 02:19:39;;;;;;;9.48;2.25;;;4.00;99.90;;;;;;4820790;29;20252;-66
2022/04/09 02:22:06;;;;;;;8.63;1.88;;;3.60;99.90;;;;;;4810815;29;20502;-67
2022/04/09 02:24:31;;;;;;;8.73;2.17;;;3.40;99.90;;;;;;4825269;29;20054;-67
2022/04/09 02:26:57;;;;;;;10.52;2.67;;;3.60;99.90;;;;;;4824113;29;20325;-67
2022/04/09 02:29:23;;;;;;;11.95;2.88;;;3.30;99.90;;;;;;4822841;29;20149;-67
2022/04/09 02:31:49;;;;;;;8.63;2.45;;;3.20;99.90;;;;;;4825491;29;20046;-67
2022/04/09 02:34:14;;;;;;;8.45;2.35;;;3.30;99.90;;;;;;4804402;29;20054;-66
2022/04/09 02:36:40;;;;;;;6.13;2.25;;;3.40;99.90;;;;;;4819216;29;20050;-66
2022/04/09 02:39:06;;;;;;;7.93;2.28;;;3.30;99.90;;;;;;4825413;29;20051;-66
2022/04/09 02:41:32;;;;;;;5.70;2.08;;;3.40;99.90;;;;;;4821240;29;20118;-67
2022/04/09 02:43:58;;;;;;;9.35;2.40;;;3.20;99.90;;;;;;4815874;29;20218;-67
2022/04/09 02:46:24;;;;;;;8.43;2.20;;;3.20;99.90;;;;;;4809395;29;20093;-66
2022/04/09 02:48:50;;;;;;;4.47;1.80;;;3.00;99.90;;;;;;4807725;29;20093;-66
2022/04/09 02:51:16;;;;;;;8.13;1.95;;;3.00;99.90;;;;;;4810764;29;20078;-67
2022/04/09 02:53:42;;;;;;;5.93;2.08;;;3.20;99.90;;;;;;4805870;29;20113;-66
2022/04/09 02:56:07;;;;;;;8.00;2.13;;;2.90;99.90;;;;;;4820823;29;20081;-67
2022/04/09 02:58:33;;;;;;;7.63;1.80;;;2.90;99.90;;;;;;4822458;29;20061;-67
2022/04/09 03:00:58;;;;;;;7.72;1.75;;;2.80;99.90;;;;;;4821075;29;20049;-66
2022/04/09 03:03:24;;;;;;;5.70;1.40;;;2.80;99.90;;;;;;4806532;29;20054;-67
2022/04/09 03:05:50;;;;;;;5.97;1.63;;;2.60;99.90;;;;;;4815921;29;20112;-67
2022/04/09 03:08:15;;;;;;;7.50;1.75;;;2.90;99.90;;;;;;4817004;29;20138;-68
2022/04/09 03:10:41;;;;;;;7.78;1.90;;;2.60;99.90;;;;;;4805475;29;20829;-66
2022/04/09 03:13:06;;;;;;;6.75;1.70;;;2.60;99.90;;;;;;4821328;29;20427;-66
2022/04/09 03:15:32;;;;;;;9.52;1.92;;;2.60;99.90;;;;;;4824236;29;20050;-67
2022/04/09 03:17:58;;;;;;;8.15;1.67;;;2.60;99.90;;;;;;4822540;29;20065;-67
2022/04/09 03:20:24;;;;;;;4.18;1.70;;;2.60;99.90;;;;;;4812654;29;20058;-67
2022/04/09 03:22:50;;;;;;;6.78;1.55;;;2.60;99.90;;;;;;4812742;29;20065;-66
2022/04/09 03:25:16;;;;;;;8.50;1.73;;;2.70;99.90;;;;;;4824181;29;20055;-66
2022/04/09 03:27:42;;;;;;;5.47;1.70;;;2.70;99.90;;;;;;4822395;29;20160;-67
2022/04/09 03:30:08;;;;;;;5.65;1.52;;;2.70;99.90;;;;;;4823184;29;20080;-66
2022/04/09 03:32:39;;;;;;;4.50;1.60;;;2.70;99.90;;;;;;4824727;29;20070;-68
2022/04/09 03:35:06;;;;;;;12.38;1.90;;;2.70;99.90;;;;;;4823010;29;20054;-66
2022/04/09 03:37:35;;;;;;;6.97;1.50;;;2.70;99.90;;;;;;4799432;29;20067;-66
2022/04/09 03:40:05;;;;;;;5.85;1.63;;;3.20;99.90;;;;;;4812750;29;20061;-66
2022/04/09 03:42:31;;;;;;;9.23;1.85;;;2.70;99.90;;;;;;4821505;29;20057;-66
2022/04/09 03:44:57;;;;;;;3.88;1.90;;;2.70;99.90;;;;;;4823978;29;20058;-68
2022/04/09 03:47:22;;;;;;;10.95;1.63;;;2.70;99.90;;;;;;4823543;29;20054;-67
2022/04/09 03:49:48;;;;;;;7.32;2.20;;;2.80;99.90;;;;;;4820266;29;20055;-66
2022/04/09 03:52:14;;;;;;;7.30;2.15;;;2.70;99.90;;;;;;4805150;29;20415;-67
2022/04/09 03:54:39;;;;;;;7.57;1.85;;;2.90;99.90;;;;;;4815792;29;20506;-67
2022/04/09 03:57:05;;;;;;;4.15;1.70;;;3.00;99.90;;;;;;4822780;29;20445;-67
2022/04/09 03:59:31;;;;;;;7.15;2.10;;;2.90;99.90;;;;;;4806039;29;20148;-66
2022/04/09 04:01:56;;;;;;;5.40;1.50;;;3.00;99.90;;;;;;4823361;29;20054;-66
2022/04/09 04:04:22;;;;;;;8.02;1.60;;;3.00;99.90;;;;;;4822256;29;20134;-67
2022/04/09 04:06:48;;;;;;;6.47;1.60;;;3.10;99.90;;;;;;4805890;29;20066;-67
2022/04/09 04:09:16;;;;;;;4.90;1.33;;;3.30;99.90;;;;;;4823904;29;20492;-67
2022/04/09 04:11:43;;;;;;;7.15;2.03;;;3.30;99.90;;;;;;4820352;29;20042;-67
2022/04/09 04:14:09;;;;;;;4.47;1.73;;;3.10;99.90;;;;;;4821699;29;20046;-66
2022/04/09 04:16:35;;;;;;;6.22;1.60;;;3.20;99.90;;;;;;4818324;29;20085;-67
2022/04/09 04:19:00;;;;;;;7.57;1.70;;;3.00;99.90;;;;;;4816251;29;20477;-68
2022/04/09 04:21:27;;;;;;;4.70;1.33;;;3.50;99.90;;;;;;4798548;29;20141;-66
2022/04/09 04:23:52;;;;;;;5.07;1.40;;;3.10;99.90;;;;;;4823397;29;20145;-66
2022/04/09 04:26:18;;;;;;;4.43;1.60;;;3.00;99.90;;;;;;4821017;29;20141;-67
2022/04/09 04:28:48;;;;;;;6.57;1.55;;;3.40;99.90;;;;;;4819639;29;20102;-67
2022/04/09 04:31:17;;;;;;;10.32;1.60;;;2.90;99.90;;;;;;4807954;29;20063;-67
2022/04/09 04:33:43;;;;;;;6.20;1.40;;;2.90;99.90;;;;;;4796405;29;20062;-68
2022/04/09 04:36:09;;;;;;;4.22;1.33;;;2.90;99.90;;;;;;4823096;29;20054;-67
2022/04/09 04:38:34;;;;;;;4.65;1.33;;;3.00;99.90;;;;;;4826734;29;20388;-68
2022/04/09 04:41:01;;;;;;;7.88;1.60;;;2.70;99.90;;;;;;4809629;29;20084;-66
2022/04/09 04:43:26;;;;;;;7.22;1.33;;;2.70;99.90;;;;;;4827209;29;20090;-67
2022/04/09 04:45:52;;;;;;;4.07;1.30;;;2.80;99.90;;;;;;4811100;29;20530;-68
2022/04/09 04:48:20;;;;;;;5.43;1.30;;;2.80;99.90;;;;;;4819045;29;20042;-67
2022/04/09 04:50:46;;;;;;;7.93;1.52;;;2.90;99.90;;;;;;4824829;29;20054;-67
2022/04/09 04:53:11;;;;;;;8.45;1.83;;;2.80;99.90;;;;;;4826081;29;20062;-67
2022/04/09 04:55:37;;;;;;;8.48;2.00;;;2.90;99.90;;;;;;4808338;29;20062;-67
2022/04/09 04:58:02;;;;;;;7.57;1.80;;;2.90;99.90;;;;;;4810012;29;20054;-66
2022/04/09 05:00:28;;;;;;;6.55;1.63;;;3.10;99.90;;;;;;4825879;29;20145;-67
2022/04/09 05:02:54;;;;;;;10.18;1.80;;;3.00;99.90;;;;;;4826014;29;20054;-67
2022/04/09 05:05:20;;;;;;;8.43;1.80;;;3.00;99.90;;;;;;4806698;29;20062;-68
2022/04/09 05:07:47;;;;;;;8.38;2.00;;;3.30;99.90;;;;;;4809964;29;20133;-68
2022/04/09 05:10:16;;;;;;;7.78;1.55;;;3.30;99.90;;;;;;4813001;29;20063;-67
2022/04/09 05:12:41;;;;;;;4.70;1.40;;;3.20;99.90;;;;;;4824682;29;20271;-68
2022/04/09 05:15:09;;;;;;;7.55;1.83;;;3.30;99.90;;;;;;4807817;29;20460;-67
2022/04/09 05:17:35;;;;;;;5.88;1.33;;;3.30;99.90;;;;;;4825744;29;20050;-67
2022/04/09 05:20:03;;;;;;;7.97;1.77;;;3.40;99.90;;;;;;4824879;29;20058;-67
2022/04/09 05:22:30;;;;;;;6.72;3.08;;;3.30;99.90;;;;;;4825628;29;20072;-66
2022/04/09 05:24:57;;;;;;;8.90;1.77;;;3.40;99.90;;;;;;4817354;29;20062;-66
2022/04/09 05:27:23;;;;;;;4.72;1.52;;;3.30;99.90;;;;;;4812463;29;20126;-67
2022/04/09 05:29:49;;;;;;;10.32;1.80;;;3.30;99.90;;;;;;4809098;29;20058;-67
2022/04/09 05:32:15;;;;;;;6.55;1.70;;;3.40;99.90;;;;;;4824680;29;20051;-68
2022/04/09 05:34:41;;;;;;;6.18;1.75;;;3.20;99.90;;;;;;4825638;29;20062;-68
2022/04/09 05:37:06;;;;;;;8.52;2.00;;;3.30;99.90;;;;;;4811677;29;20175;-68
2022/04/09 05:39:32;;;;;;;8.93;2.40;;;3.50;99.90;;;;;;4825139;29;20137;-68
2022/04/09 05:41:57;;;;;;;5.70;1.60;;;3.30;99.90;;;;;;4823819;29;20050;-68
2022/04/09 05:44:23;;;;;;;6.53;1.90;;;3.30;99.90;;;;;;4807463;29;20058;-68
2022/04/09 05:47:15;;;;;;;6.78;1.98;;;3.20;99.90;;;;;;4821048;29;20058;-68
2022/04/09 05:49:42;;;;;;;5.70;1.73;;;3.80;99.90;;;;;;4803901;29;20089;-68
2022/04/09 05:52:11;;;;;;;5.10;1.80;;;3.60;99.90;;;;;;4809777;29;20061;-68
2022/04/09 05:54:37;;;;;;;9.30;2.05;;;3.80;99.90;;;;;;4808287;29;20059;-68
2022/04/09 05:58:00;;;;;;;7.32;2.15;;;4.00;99.90;;;;;;4805837;29;20393;-66
2022/04/09 06:00:25;;;;;;;;;;;4.60;99.90;;;;;;4808969;29;20054;-68
2022/04/09 06:02:51;;;;;;;6.20;1.40;;;4.40;99.90;;;;;;4809326;29;19993;-68
2022/04/09 06:05:17;;;;;;;4.75;1.60;;;4.50;99.90;;;;;;4802856;29;20416;-68
2022/04/09 06:07:42;;;;;;;6.40;1.40;;;4.60;99.90;;;;;;4818617;29;20066;-67
2022/04/09 06:10:10;;;;;;;4.75;1.60;;;4.50;99.90;;;;;;4809213;29;20051;-68
2022/04/09 06:12:36;;;;;;;4.82;1.85;;;4.60;99.90;;;;;;4824461;29;20055;-67
2022/04/09 06:15:03;;;;;;;5.40;1.63;;;4.80;99.90;;;;;;4809590;29;20058;-68
2022/04/09 06:17:29;;;;;;;6.57;2.05;;;4.60;99.90;;;;;;4825847;29;20062;-67
2022/04/09 06:19:55;;;;;;;6.20;1.50;;;4.70;99.90;;;;;;4822823;29;20167;-68
2022/04/09 06:22:20;;;;;;;5.13;2.00;;;4.90;99.90;;;;;;4824041;29;20398;-68
2022/04/09 06:24:46;;;;;;;7.65;1.92;;;4.60;99.90;;;;;;4824713;29;20064;-67
2022/04/09 06:27:12;;;;;;;6.88;1.60;;;4.50;99.90;;;;;;4808416;29;20085;-68
2022/04/09 06:29:37;;;;;;;8.40;2.10;;;4.50;99.90;;;;;;4824970;29;20054;-67
2022/04/09 06:32:06;;;;;;;9.45;1.98;;;4.60;99.90;;;;;;4825385;29;20066;-67
2022/04/09 06:34:33;;;;;;;8.60;2.03;;;4.60;99.90;;;;;;4808871;29;20066;-67
2022/04/09 06:36:59;;;;;;;6.13;2.10;;;4.60;99.90;;;;;;4808603;29;20085;-68
2022/04/09 06:39:28;;;;;;;8.82;2.17;;;5.00;99.90;;;;;;4824419;29;20150;-66
2022/04/09 06:42:00;;;;;;;10.15;1.98;;;5.10;99.90;;;;;;4824477;29;20061;-68
2022/04/09 06:44:33;;;;;;;6.88;2.00;;;4.90;99.90;;;;;;4820899;29;20050;-68
2022/04/09 06:46:59;;;;;;;8.63;2.15;;;5.10;99.90;;;;;;4823379;29;20058;-67
2022/04/09 06:49:27;;;;;;;8.38;2.97;;;5.10;99.90;;;;;;4809434;29;20090;-66
2022/04/09 06:51:52;;;;;;;5.78;2.00;;;5.00;99.90;;;;;;4808489;29;20101;-67
2022/04/09 06:54:45;;;;;;;6.90;1.65;;;5.40;99.90;;;;;;4823874;29;20051;-67
2022/04/09 06:57:10;;;;;;;9.27;1.80;;;6.00;99.90;;;;;;4807518;29;20055;-67
2022/04/09 06:59:36;;;;;;;6.68;2.10;;;5.70;99.90;;;;;;4823209;29;20106;-68
2022/04/09 07:02:03;;;;;;;10.38;2.35;;;6.30;99.90;;;;;;4806269;29;20065;-68
2022/04/09 07:08:36;;;;;;;7.55;1.75;;;7.20;99.90;;;;;;4823647;29;20521;-67
2022/04/09 07:11:02;;;;;;;5.60;1.70;;;6.50;99.90;;;;;;4806835;29;20146;-69
2022/04/09 07:13:31;;;;;;;12.30;2.17;;;6.50;99.90;;;;;;4806684;29;20141;-67
2022/04/09 07:16:22;;;;;;;6.78;1.95;;;6.40;99.90;;;;;;4823463;29;20133;-67
2022/04/09 07:18:48;;;;;;;7.95;1.73;;;6.40;99.90;;;;;;4807227;29;20181;-66
2022/04/09 07:21:14;;;;;;;7.90;1.75;;;6.40;99.90;;;;;;4823916;29;20064;-67
2022/04/09 07:23:39;;;;;;;3.90;1.67;;;6.10;99.90;;;;;;4806986;29;20066;-67
2022/04/09 07:26:30;;;;;;;4.63;1.40;;;6.40;99.90;;;;;;4807030;29;20404;-68
2022/04/09 07:28:56;;;;;;;4.20;1.30;;;6.40;99.90;;;;;;4806677;29;20115;-67
2022/04/09 07:32:13;;;;;;;7.13;1.60;;;6.40;99.90;;;;;;4791811;29;20408;-66
2022/04/09 07:34:38;;;;;;;3.30;1.50;;;6.30;99.90;;;;;;4822480;29;20065;-68
2022/04/09 07:37:29;;;;;;;4.97;1.77;;;6.50;99.90;;;;;;4806446;29;20050;-67
2022/04/09 07:39:55;;;;;;;6.93;1.90;;;6.60;99.90;;;;;;4821781;29;20054;-67
2022/04/09 07:42:46;;;;;;;7.18;2.30;;;6.80;99.90;;;;;;4806417;29;20054;-66
2022/04/09 07:46:06;;;;;;;8.73;2.00;;;6.90;99.90;;;;;;4805983;29;20057;-67
2022/04/09 07:48:33;;;;;;;7.50;1.88;;;8.00;99.90;;;;;;4805010;29;20068;-68
2022/04/09 07:51:57;;;;;;;11.45;2.17;;;7.00;99.90;;;;;;4819343;29;20054;-68
2022/04/09 07:55:16;;;;;;;13.15;1.90;;;7.10;99.90;;;;;;4825061;29;20062;-68
2022/04/09 07:57:46;;;;;;;8.13;1.88;;;7.20;99.90;;;;;;4808751;29;20073;-67
2022/04/09 08:00:15;;;;;;;8.88;1.25;;;7.60;99.90;;;;;;4820146;29;20061;-66
2022/04/09 08:02:53;;;;;;;8.75;1.60;;;7.80;99.90;;;;;;4820924;29;20526;-67
2022/04/09 08:05:21;;;;;;;4.20;1.50;;;7.30;99.90;;;;;;4789691;29;20103;-70
2022/04/09 08:08:13;;;;;;;6.07;2.00;;;7.50;99.90;;;;;;4805894;29;20455;-67
2022/04/09 08:10:39;;;;;;;7.72;1.40;;;8.00;99.90;;;;;;4805194;29;20058;-68
2022/04/09 08:13:31;;;;;;;7.88;1.58;;;7.50;99.90;;;;;;4806716;29;20057;-68
2022/04/09 08:16:00;;;;;;;3.80;1.02;;;7.50;99.90;;;;;;4806009;29;20046;-68
2022/04/09 08:18:28;;;;;;;6.43;1.42;;;7.50;99.90;;;;;;4821076;29;20090;-68
2022/04/09 08:20:54;;;;;;;5.78;1.40;;;7.70;99.90;;;;;;4822501;29;20058;-69
2022/04/09 08:23:47;;;;;;;6.75;1.35;;;7.60;99.90;;;;;;4804810;29;20140;-68
2022/04/09 08:26:39;;;;;;;5.72;1.33;;;7.60;99.90;;;;;;4819477;29;20065;-69
2022/04/09 08:29:19;;;;;;;2.75;1.27;;;7.90;99.90;;;;;;4805412;29;20122;-68
2022/04/09 08:32:10;;;;;;;6.00;1.55;;;8.60;99.90;;;;;;4808860;29;20155;-68
2022/04/09 08:34:38;;;;;;;6.35;1.23;;;8.00;99.90;;;;;;4805489;29;20054;-68
2022/04/09 08:37:06;;;;;;;6.47;1.25;;;8.20;99.90;;;;;;4806918;29;20050;-67
2022/04/09 08:39:35;;;;;;;6.10;1.48;;;8.30;99.90;;;;;;4816249;29;20054;-66
2022/04/09 08:42:03;;;;;;;5.22;1.35;;;8.50;99.90;;;;;;4813811;29;20492;-67
2022/04/09 08:44:29;;;;;;;5.10;1.10;;;8.40;99.90;;;;;;4807284;29;20081;-67
2022/04/09 08:46:56;;;;;;;4.13;1.65;;;8.50;99.90;;;;;;4811189;29;20059;-66
2022/04/09 08:49:24;;;;;;;5.72;1.20;;;8.40;99.90;;;;;;4792159;29;20057;-66
2022/04/09 08:51:50;;;;;;;6.53;1.58;;;8.30;99.90;;;;;;4806169;29;20414;-67
2022/04/09 08:54:17;;;;;;;6.43;1.75;;;8.30;99.90;;;;;;4804095;29;20082;-65
2022/04/09 08:56:42;;;;;;;7.35;1.45;;;8.70;99.90;;;;;;4823454;29;20058;-66
2022/04/09 08:59:08;;;;;;;3.15;0.88;;;8.50;99.90;;;;;;4821170;29;20484;-67
2022/04/09 09:01:33;;;;;;;4.32;1.25;;;8.50;99.90;;;;;;4807632;29;20146;-67
2022/04/09 09:03:59;;;;;;;2.47;0.90;;;8.60;99.90;;;;;;4799823;29;20142;-68
2022/04/09 09:06:30;;;;;;;6.45;1.38;;;9.50;99.90;;;;;;4797026;29;20055;-65
2022/04/09 09:09:04;;;;;;;4.10;1.40;;;8.70;99.90;;;;;;4805524;29;20054;-65
2022/04/09 09:11:50;;;;;;;3.95;1.08;;;8.80;99.90;;;;;;4803551;29;20047;-65
2022/04/09 09:14:32;;;;;;;2.88;0.90;;;8.80;99.90;;;;;;4811574;29;20082;-67
2022/04/09 09:16:59;;;;;;;5.75;1.20;;;8.70;99.90;;;;;;4820651;29;20054;-68
2022/04/09 09:19:48;;;;;;;6.28;1.40;;;8.70;99.90;;;;;;4805478;29;20070;-67
2022/04/09 09:22:14;;;;;;;4.85;1.25;;;8.70;99.90;;;;;;4804306;29;20054;-67
2022/04/09 09:24:41;;;;;;;4.80;1.27;;;8.80;99.90;;;;;;4808656;29;20081;-68
2022/04/09 09:27:07;;;;;;;4.10;0.90;;;9.10;99.90;;;;;;4808615;29;20061;-67
2022/04/09 09:29:36;;;;;;;4.55;1.23;;;9.20;99.90;;;;;;4808581;29;20103;-67
2022/04/09 09:32:07;;;;;;;6.20;1.05;;;9.30;99.90;;;;;;4816500;29;20133;-69
2022/04/09 09:34:35;;;;;;;7.10;1.40;;;9.30;99.90;;;;;;4824872;29;20062;-69
2022/04/09 09:37:01;;;;;;;4.80;0.90;;;9.20;99.90;;;;;;4817355;29;20051;-67
2022/04/09 09:39:34;;;;;;;7.00;1.65;;;9.20;99.90;;;;;;4808355;29;20089;-70
2022/04/09 09:42:04;;;;;;;4.20;1.15;;;9.00;99.90;;;;;;4815260;29;20495;-67
2022/04/09 09:44:34;;;;;;;3.55;1.10;;;9.00;99.90;;;;;;4809942;29;20061;-68
2022/04/09 09:47:08;;;;;;;4.95;1.05;;;9.10;99.90;;;;;;4813064;29;20066;-69
2022/04/09 09:49:58;;;;;;;5.28;0.80;;;9.20;99.90;;;;;;4791573;29;20063;-69
2022/04/09 09:52:31;;;;;;;4.28;1.10;;;9.40;99.90;;;;;;4779520;29;20133;-69
2022/04/09 09:55:04;;;;;;;5.80;2.33;;;9.50;99.90;;;;;;4826002;29;20065;-67
2022/04/09 09:57:31;;;;;;;3.90;1.42;;;;;;;;;;4806175;29;20109;-67
2022/04/09 09:59:59;;;;;;;6.03;0.95;;;;;;;;;;4806693;29;20059;-68
2022/04/09 10:02:26;;;;;;;6.22;1.25;;;;;;;;;;4806927;29;20062;-70
2022/04/09 10:04:53;;;;;;;5.15;1.20;;;;;;;;;;4809750;29;20077;-69
2022/04/09 10:07:19;;;;;;;4.93;1.02;;;;;;;;;;4809433;29;20094;-68
2022/04/09 10:09:49;;;;;;;3.45;1.00;;;;;;;;;;4809584;29;20510;-67
2022/04/09 10:12:21;;;;;;;7.63;1.30;;;;;;;;;;4807780;29;20096;-70
2022/04/09 10:14:51;;;;;;;2.57;1.13;;;;;;;;;;4822372;29;20054;-68
2022/04/09 10:17:18;;;;;;;5.18;1.48;;;;;;;;;;4823679;29;20054;-66
2022/04/09 10:19:44;;;;;;;7.45;1.52;;;;;;;;;;4824036;29;20050;-69
2022/04/09 10:22:11;;;;;;;5.82;1.10;;;;;;;;;;4807891;29;20058;-67
2022/04/09 10:24:39;;;;;;;6.82;1.63;;;;;;;;;;4801115;29;20064;-69
2022/04/09 10:27:07;;;;;;;8.93;2.35;;;;;;;;;;4811654;29;20055;-69
2022/04/09 10:29:49;;;;;;;4.28;1.30;;;;;;;;;;4807849;29;20057;-68
2022/04/09 10:32:46;;;;;;;2.78;1.00;;;8.60;99.90;;;;;;4804679;29;20108;-67
2022/04/09 10:35:40;;;;;;;5.90;1.63;;;8.60;99.90;;;;;;4810230;29;20054;-70
2022/04/09 10:38:12;;;;;;;4.68;1.10;;;9.00;99.90;;;;;;4823253;29;20074;-67
2022/04/09 10:40:52;;;;;;;3.58;0.98;;;9.20;99.90;;;;;;4807731;29;20057;-67
2022/04/09 10:43:21;;;;;;;5.18;1.20;;;9.30;99.90;;;;;;4813280;29;20694;-70
2022/04/09 10:46:19;;;;;;;5.72;1.27;;;9.30;99.90;;;;;;4815602;29;20061;-68
2022/04/09 10:48:47;;;;;;;7.40;1.85;;;9.50;99.90;;;;;;4816501;29;20058;-69
2022/04/09 10:51:18;;;;;;;6.15;0.93;;;9.40;99.90;;;;;;4804918;29;20057;-68
2022/04/09 10:53:46;;;;;;;3.72;1.15;;;9.30;99.90;;;;;;4790657;29;20050;-68
2022/04/09 10:56:29;;;;;;;4.90;0.73;;;9.10;99.90;;;;;;4815012;29;20051;-68
2022/04/09 10:59:18;;;;;;;4.05;0.98;;;8.80;99.90;;;;;;4813272;29;20069;-67
2022/04/09 11:01:47;;;;;;;6.40;1.00;;;8.00;99.90;;;;;;4823569;29;20067;-67
2022/04/09 11:04:37;;;;;;;3.35;0.90;;;7.30;99.90;;;;;;4818319;29;20458;-68
2022/04/09 11:07:08;;;;;;;2.97;1.00;;;7.30;99.90;;;;;;4822161;29;20135;-67
2022/04/09 11:09:52;;;;;;;3.40;0.85;;;7.00;99.90;;;;;;4820328;29;20119;-70
2022/04/09 11:12:24;;;;;;;5.57;1.13;;;6.80;99.90;;;;;;4820562;29;20139;-68
2022/04/09 11:14:54;;;;;;;3.67;0.80;;;6.60;99.90;;;;;;4806035;29;20137;-68
2022/04/09 11:17:26;;;;;;;5.90;1.38;;;6.90;99.90;;;;;;4791024;29;20118;-68
2022/04/09 11:19:52;;;;;;;2.00;0.60;;;6.60;99.90;;;;;;4807456;29;20548;-68
2022/04/09 11:22:18;;;;;;;3.53;1.08;;;6.60;99.90;;;;;;4815979;29;20054;-67
2022/04/09 11:24:44;;;;;;;3.58;1.00;;;6.80;99.90;;;;;;4807904;29;20046;-68
2022/04/09 11:27:10;;;;;;;2.83;0.73;;;6.90;99.90;;;;;;4807697;29;20058;-68
2022/04/09 11:29:38;;;;;;;3.78;1.15;;;6.90;99.90;;;;;;4815848;29;20061;-69
2022/04/09 11:32:04;;;;;;;4.22;1.25;;;7.30;99.90;;;;;;4821766;29;20129;-68
2022/04/09 11:34:47;;;;;;;4.68;1.10;;;7.70;99.90;;;;;;4807886;29;20504;-68
2022/04/09 11:37:13;;;;;;;6.47;1.23;;;7.90;99.90;;;;;;4807702;29;20496;-69
2022/04/09 11:39:43;;;;;;;3.95;0.77;;;8.20;99.90;;;;;;4824504;29;20054;-69
2022/04/09 11:42:10;;;;;;;5.10;1.30;;;8.40;99.90;;;;;;4822334;29;20066;-68
2022/04/09 11:44:38;;;;;;;5.05;1.20;;;8.60;99.90;;;;;;4807865;29;20112;-69
2022/04/09 11:47:24;;;;;;;6.43;1.10;;;8.70;99.90;;;;;;4819760;29;20054;-68
2022/04/09 11:49:52;;;;;;;4.68;1.20;;;8.90;99.90;;;;;;4814328;29;20051;-69
2022/04/09 11:52:29;;;;;;;5.55;1.17;;;8.90;99.90;;;;;;4816306;29;20050;-69
2022/04/09 11:54:55;;;;;;;4.43;1.00;;;8.90;99.90;;;;;;4817472;29;20129;-67
2022/04/09 11:57:22;;;;;;;9.15;1.50;;;8.80;99.90;;;;;;4804751;29;20081;-68
2022/04/09 11:59:52;;;;;;;13.45;1.67;;;8.80;99.90;;;;;;4808434;29;20058;-68
2022/04/09 12:02:24;;;;;;;7.97;1.20;;;8.80;99.90;;;;;;4824253;29;20066;-67
2022/04/09 12:04:51;;;;;;;4.40;1.48;;;8.80;99.90;;;;;;4807907;29;20057;-69
2022/04/09 12:07:18;;;;;;;4.72;1.55;;;9.00;99.90;;;;;;4807188;29;20065;-67
2022/04/09 12:09:43;;;;;;;4.63;1.10;;;9.20;99.90;;;;;;4821940;29;20121;-69
2022/04/09 12:12:10;;;;;;;4.07;1.23;;;9.40;99.90;;;;;;4807440;29;20183;-69
2022/04/09 12:14:35;;;;;;;2.63;0.85;;;9.50;99.90;;;;;;4812777;29;20093;-68
2022/04/09 12:17:22;;;;;;;3.28;0.80;;;9.60;99.90;;;;;;4807384;29;20532;-66
2022/04/09 12:19:49;;;;;;;3.42;1.05;;;9.70;99.90;;;;;;4807187;29;20183;-66
2022/04/09 12:22:24;;;;;;;4.30;1.15;;;9.60;99.90;;;;;;4823505;29;20057;-67
2022/04/09 12:24:54;;;;;;;4.55;1.13;;;9.80;99.90;;;;;;4807500;29;20074;-66
2022/04/09 12:27:39;;;;;;;3.70;1.13;;;9.70;99.90;;;;;;4807007;29;20089;-67
2022/04/09 12:30:05;;;;;;;6.05;1.20;;;9.90;99.90;;;;;;4810653;29;20076;-66
2022/04/09 12:32:33;;;;;;;5.88;1.20;;;10.00;99.90;;;;;;4789352;29;20063;-67
2022/04/09 12:35:05;;;;;;;3.33;0.90;;;9.90;99.90;;;;;;4797178;29;20063;-67
2022/04/09 12:37:41;;;;;;;3.38;0.80;;;9.70;99.90;;;;;;4804316;29;20091;-66
2022/04/09 12:40:17;;;;;;;1.95;0.80;;;9.50;99.90;;;;;;4806243;29;20062;-66
2022/04/09 12:42:43;;;;;;;2.08;0.80;;;9.30;99.90;;;;;;4821741;29;20065;-67
2022/04/09 12:45:15;;;;;;;3.33;0.70;;;9.10;99.90;;;;;;4807016;29;20050;-67
2022/04/09 12:47:41;;;;;;;5.10;1.65;;;8.90;99.90;;;;;;4823863;29;20110;-67
2022/04/09 12:50:18;;;;;;;2.85;0.80;;;8.70;99.90;;;;;;4824191;29;20141;-67
2022/04/09 12:52:44;;;;;;;2.80;0.90;;;8.40;99.90;;;;;;4807266;29;20054;-68
2022/04/09 12:55:10;;;;;;;2.13;0.57;;;8.50;99.90;;;;;;4824122;29;20065;-67
2022/04/09 12:57:35;;;;;;;1.80;0.60;;;8.30;99.90;;;;;;4806511;29;20054;-67
2022/04/09 13:00:04;;;;;;;1.85;0.43;;;8.20;99.90;;;;;;4810904;29;20068;-67
2022/04/09 13:02:32;;;;;;;3.35;0.70;;;8.20;99.90;;;;;;4826073;29;20058;-67
2022/04/09 13:04:58;;;;;;;3.75;0.80;;;8.30;99.90;;;;;;4811045;29;20495;-67
2022/04/09 13:07:23;;;;;;;4.05;0.85;;;8.50;99.90;;;;;;4825963;29;20062;-66
2022/04/09 13:09:49;;;;;;;2.03;0.50;;;8.60;99.90;;;;;;4811022;29;20488;-67
2022/04/09 13:12:14;;;;;;;1.63;0.40;;;8.80;99.90;;;;;;4825533;29;20062;-67
2022/04/09 13:14:43;;;;;;;2.65;0.77;;;9.00;99.90;;;;;;4810554;29;20076;-66
2022/04/09 13:17:09;;;;;;;2.05;0.50;;;9.20;99.90;;;;;;4801922;29;20061;-67